sensor_id;sensor_type;location;lat;lon;timestamp;temperature;humidity
63317;DHT22;49822;41.468;13.560;2024-03-23T00:54:56;12.00;89.30
63317;DHT22;49822;41.468;13.560;2024-03-23T00:57:22;12.00;89.50
63317;DHT22;49822;41.468;13.560;2024-03-23T00:59:48;12.00;89.00
63317;DHT22;49822;41.468;13.560;2024-03-23T01:02:13;12.10;88.90
63317;DHT22;49822;41.468;13.560;2024-03-23T01:04:39;12.10;88.90
63317;DHT22;49822;41.468;13.560;2024-03-23T01:07:05;12.10;88.30
63317;DHT22;49822;41.468;13.560;2024-03-23T01:09:32;12.00;88.50
63317;DHT22;49822;41.468;13.560;2024-03-23T01:11:58;12.10;88.90
63317;DHT22;49822;41.468;13.560;2024-03-23T01:14:24;12.10;88.90
63317;DHT22;49822;41.468;13.560;2024-03-23T01:16:50;12.00;88.50
63317;DHT22;49822;41.468;13.560;2024-03-23T01:19:16;12.10;88.80
63317;DHT22;49822;41.468;13.560;2024-03-23T01:21:43;12.10;88.70
63317;DHT22;49822;41.468;13.560;2024-03-23T01:24:09;12.10;88.50
63317;DHT22;49822;41.468;13.560;2024-03-23T01:26:36;12.20;88.60
63317;DHT22;49822;41.468;13.560;2024-03-23T01:29:02;12.10;88.30
63317;DHT22;49822;41.468;13.560;2024-03-23T01:31:29;12.00;88.00
63317;DHT22;49822;41.468;13.560;2024-03-23T01:33:54;11.90;88.30
63317;DHT22;49822;41.468;13.560;2024-03-23T01:36:20;11.70;88.50
63317;DHT22;49822;41.468;13.560;2024-03-23T01:38:46;11.70;89.10
63317;DHT22;49822;41.468;13.560;2024-03-23T01:41:12;11.40;89.50
63317;DHT22;49822;41.468;13.560;2024-03-23T01:43:38;11.10;89.80
63317;DHT22;49822;41.468;13.560;2024-03-23T01:46:04;11.10;91.00
63317;DHT22;49822;41.468;13.560;2024-03-23T01:48:30;11.10;91.30
63317;DHT22;49822;41.468;13.560;2024-03-23T01:50:56;11.10;91.20
63317;DHT22;49822;41.468;13.560;2024-03-23T01:53:22;11.20;91.00
63317;DHT22;49822;41.468;13.560;2024-03-23T01:55:50;11.10;90.10
63317;DHT22;49822;41.468;13.560;2024-03-23T01:58:18;11.10;90.50
63317;DHT22;49822;41.468;13.560;2024-03-23T02:00:46;11.10;90.60
63317;DHT22;49822;41.468;13.560;2024-03-23T02:03:27;11.20;90.90
63317;DHT22;49822;41.468;13.560;2024-03-23T02:05:54;11.20;90.10
63317;DHT22;49822;41.468;13.560;2024-03-23T02:08:23;11.20;90.30
63317;DHT22;49822;41.468;13.560;2024-03-23T02:10:52;11.00;90.70
63317;DHT22;49822;41.468;13.560;2024-03-23T02:13:19;11.00;91.40
63317;DHT22;49822;41.468;13.560;2024-03-23T02:15:46;11.00;91.60
63317;DHT22;49822;41.468;13.560;2024-03-23T02:18:12;11.00;91.60
63317;DHT22;49822;41.468;13.560;2024-03-23T02:24:33;11.00;90.90
63317;DHT22;49822;41.468;13.560;2024-03-23T02:26:59;11.00;91.80
63317;DHT22;49822;41.468;13.560;2024-03-23T02:29:25;11.20;91.60
63317;DHT22;49822;41.468;13.560;2024-03-23T02:31:52;11.10;91.30
63317;DHT22;49822;41.468;13.560;2024-03-23T02:34:18;11.10;91.00
63317;DHT22;49822;41.468;13.560;2024-03-23T02:36:44;11.30;91.60
63317;DHT22;49822;41.468;13.560;2024-03-23T02:39:10;11.20;91.60
63317;DHT22;49822;41.468;13.560;2024-03-23T02:41:37;11.30;91.10
63317;DHT22;49822;41.468;13.560;2024-03-23T02:44:03;11.40;90.30
63317;DHT22;49822;41.468;13.560;2024-03-23T02:46:29;11.30;89.60
63317;DHT22;49822;41.468;13.560;2024-03-23T02:48:55;11.10;90.10
63317;DHT22;49822;41.468;13.560;2024-03-23T02:51:22;11.20;90.70
63317;DHT22;49822;41.468;13.560;2024-03-23T02:53:48;11.20;90.70
63317;DHT22;49822;41.468;13.560;2024-03-23T02:56:14;11.30;90.90
63317;DHT22;49822;41.468;13.560;2024-03-23T02:58:43;11.20;89.60
63317;DHT22;49822;41.468;13.560;2024-03-23T03:01:09;11.20;90.50
63317;DHT22;49822;41.468;13.560;2024-03-23T03:03:35;11.20;90.50
63317;DHT22;49822;41.468;13.560;2024-03-23T03:06:01;11.30;90.60
63317;DHT22;49822;41.468;13.560;2024-03-23T03:08:27;11.40;90.60
63317;DHT22;49822;41.468;13.560;2024-03-23T03:10:52;11.40;90.10
63317;DHT22;49822;41.468;13.560;2024-03-23T03:13:18;11.40;89.60
63317;DHT22;49822;41.468;13.560;2024-03-23T03:19:32;11.40;89.70
63317;DHT22;49822;41.468;13.560;2024-03-23T03:21:58;11.30;90.20
63317;DHT22;49822;41.468;13.560;2024-03-23T03:24:24;11.50;90.30
63317;DHT22;49822;41.468;13.560;2024-03-23T03:26:52;11.50;90.10
63317;DHT22;49822;41.468;13.560;2024-03-23T03:29:20;11.50;90.10
63317;DHT22;49822;41.468;13.560;2024-03-23T03:31:59;11.60;90.10
63317;DHT22;49822;41.468;13.560;2024-03-23T03:34:42;11.60;90.00
63317;DHT22;49822;41.468;13.560;2024-03-23T03:37:12;11.60;90.00
63317;DHT22;49822;41.468;13.560;2024-03-23T03:39:41;11.60;89.70
63317;DHT22;49822;41.468;13.560;2024-03-23T03:42:11;11.50;90.10
63317;DHT22;49822;41.468;13.560;2024-03-23T03:44:37;11.60;89.90
63317;DHT22;49822;41.468;13.560;2024-03-23T03:47:06;11.60;90.10
63317;DHT22;49822;41.468;13.560;2024-03-23T03:49:35;11.70;89.90
63317;DHT22;49822;41.468;13.560;2024-03-23T03:52:01;11.70;89.90
63317;DHT22;49822;41.468;13.560;2024-03-23T03:54:28;11.70;89.80
63317;DHT22;49822;41.468;13.560;2024-03-23T03:56:54;11.80;90.00
63317;DHT22;49822;41.468;13.560;2024-03-23T03:59:21;11.90;90.00
63317;DHT22;49822;41.468;13.560;2024-03-23T04:01:48;11.90;89.90
63317;DHT22;49822;41.468;13.560;2024-03-23T04:04:16;11.90;89.80
63317;DHT22;49822;41.468;13.560;2024-03-23T04:06:43;11.90;89.80
63317;DHT22;49822;41.468;13.560;2024-03-23T04:09:25;11.90;89.70
63317;DHT22;49822;41.468;13.560;2024-03-23T04:12:10;11.80;89.70
63317;DHT22;49822;41.468;13.560;2024-03-23T04:14:38;11.90;89.70
63317;DHT22;49822;41.468;13.560;2024-03-23T04:17:04;11.80;89.70
63317;DHT22;49822;41.468;13.560;2024-03-23T04:19:30;11.90;89.60
63317;DHT22;49822;41.468;13.560;2024-03-23T04:21:57;11.80;89.60
63317;DHT22;49822;41.468;13.560;2024-03-23T04:24:24;11.70;89.90
63317;DHT22;49822;41.468;13.560;2024-03-23T04:26:54;11.50;90.30
63317;DHT22;49822;41.468;13.560;2024-03-23T04:29:24;11.50;90.70
63317;DHT22;49822;41.468;13.560;2024-03-23T04:31:56;11.60;90.70
63317;DHT22;49822;41.468;13.560;2024-03-23T04:34:23;11.60;90.50
63317;DHT22;49822;41.468;13.560;2024-03-23T04:36:49;11.60;90.40
63317;DHT22;49822;41.468;13.560;2024-03-23T04:39:16;11.50;90.60
63317;DHT22;49822;41.468;13.560;2024-03-23T04:41:48;11.50;90.70
63317;DHT22;49822;41.468;13.560;2024-03-23T04:44:14;11.10;92.10
63317;DHT22;49822;41.468;13.560;2024-03-23T04:46:59;11.00;93.10
63317;DHT22;49822;41.468;13.560;2024-03-23T04:49:41;11.00;93.20
63317;DHT22;49822;41.468;13.560;2024-03-23T04:52:07;11.20;93.10
63317;DHT22;49822;41.468;13.560;2024-03-23T04:54:33;11.20;92.80
63317;DHT22;49822;41.468;13.560;2024-03-23T04:57:01;11.30;92.60
63317;DHT22;49822;41.468;13.560;2024-03-23T04:59:27;11.40;92.10
63317;DHT22;49822;41.468;13.560;2024-03-23T05:01:54;11.30;91.30
63317;DHT22;49822;41.468;13.560;2024-03-23T05:04:21;11.20;91.40
63317;DHT22;49822;41.468;13.560;2024-03-23T05:06:48;11.30;91.60
63317;DHT22;49822;41.468;13.560;2024-03-23T05:09:14;11.30;91.40
63317;DHT22;49822;41.468;13.560;2024-03-23T05:11:43;11.30;91.50
63317;DHT22;49822;41.468;13.560;2024-03-23T05:14:09;11.40;91.60
63317;DHT22;49822;41.468;13.560;2024-03-23T05:16:39;11.50;91.60
63317;DHT22;49822;41.468;13.560;2024-03-23T05:19:07;11.40;91.30
63317;DHT22;49822;41.468;13.560;2024-03-23T05:21:33;11.50;90.70
63317;DHT22;49822;41.468;13.560;2024-03-23T05:23:59;11.50;90.40
63317;DHT22;49822;41.468;13.560;2024-03-23T05:26:26;11.50;90.10
63317;DHT22;49822;41.468;13.560;2024-03-23T05:28:54;11.50;90.30
63317;DHT22;49822;41.468;13.560;2024-03-23T05:31:27;11.60;90.30
63317;DHT22;49822;41.468;13.560;2024-03-23T05:34:02;11.60;90.30
63317;DHT22;49822;41.468;13.560;2024-03-23T05:36:29;11.60;90.20
63317;DHT22;49822;41.468;13.560;2024-03-23T05:38:58;11.70;90.20
63317;DHT22;49822;41.468;13.560;2024-03-23T05:41:24;11.80;90.30
63317;DHT22;49822;41.468;13.560;2024-03-23T05:43:51;11.80;90.40
63317;DHT22;49822;41.468;13.560;2024-03-23T05:46:19;11.80;90.40
63317;DHT22;49822;41.468;13.560;2024-03-23T05:48:47;11.90;90.30
63317;DHT22;49822;41.468;13.560;2024-03-23T05:51:13;11.90;90.40
63317;DHT22;49822;41.468;13.560;2024-03-23T05:53:39;12.00;90.40
63317;DHT22;49822;41.468;13.560;2024-03-23T05:56:05;12.10;90.20
63317;DHT22;49822;41.468;13.560;2024-03-23T05:58:33;12.20;90.20
63317;DHT22;49822;41.468;13.560;2024-03-23T06:01:08;12.30;90.20
63317;DHT22;49822;41.468;13.560;2024-03-23T06:03:40;12.20;90.10
63317;DHT22;49822;41.468;13.560;2024-03-23T06:06:06;12.30;90.00
63317;DHT22;49822;41.468;13.560;2024-03-23T06:08:39;12.30;90.00
63317;DHT22;49822;41.468;13.560;2024-03-23T06:11:06;12.50;90.10
63317;DHT22;49822;41.468;13.560;2024-03-23T06:13:33;12.60;90.20
63317;DHT22;49822;41.468;13.560;2024-03-23T06:16:07;12.80;89.70
63317;DHT22;49822;41.468;13.560;2024-03-23T06:18:37;12.80;89.60
63317;DHT22;49822;41.468;13.560;2024-03-23T06:21:04;12.80;89.40
63317;DHT22;49822;41.468;13.560;2024-03-23T06:23:30;13.10;89.40
63317;DHT22;49822;41.468;13.560;2024-03-23T06:25:58;13.20;89.20
63317;DHT22;49822;41.468;13.560;2024-03-23T06:28:24;13.10;88.90
63317;DHT22;49822;41.468;13.560;2024-03-23T06:30:58;13.20;88.60
63317;DHT22;49822;41.468;13.560;2024-03-23T06:33:33;13.30;88.50
63317;DHT22;49822;41.468;13.560;2024-03-23T06:35:59;13.20;88.80
63317;DHT22;49822;41.468;13.560;2024-03-23T06:38:26;13.30;88.80
63317;DHT22;49822;41.468;13.560;2024-03-23T06:40:53;13.30;88.70
63317;DHT22;49822;41.468;13.560;2024-03-23T06:43:45;13.60;88.80
63317;DHT22;49822;41.468;13.560;2024-03-23T06:46:16;13.60;88.80
63317;DHT22;49822;41.468;13.560;2024-03-23T06:48:45;13.80;88.20
63317;DHT22;49822;41.468;13.560;2024-03-23T06:51:12;13.90;87.70
63317;DHT22;49822;41.468;13.560;2024-03-23T06:54:05;14.00;87.80
63317;DHT22;49822;41.468;13.560;2024-03-23T06:56:36;14.20;87.40
63317;DHT22;49822;41.468;13.560;2024-03-23T06:59:02;14.20;87.40
63317;DHT22;49822;41.468;13.560;2024-03-23T07:01:28;14.30;87.90
63317;DHT22;49822;41.468;13.560;2024-03-23T07:03:57;14.50;87.90
63317;DHT22;49822;41.468;13.560;2024-03-23T07:06:23;14.60;87.40
63317;DHT22;49822;41.468;13.560;2024-03-23T07:08:49;14.80;87.20
63317;DHT22;49822;41.468;13.560;2024-03-23T07:11:24;14.80;87.50
63317;DHT22;49822;41.468;13.560;2024-03-23T07:13:51;14.80;87.10
63317;DHT22;49822;41.468;13.560;2024-03-23T07:16:18;14.90;86.80
63317;DHT22;49822;41.468;13.560;2024-03-23T07:18:45;15.00;86.50
63317;DHT22;49822;41.468;13.560;2024-03-23T07:21:12;15.00;86.40
63317;DHT22;49822;41.468;13.560;2024-03-23T07:23:41;15.10;86.50
63317;DHT22;49822;41.468;13.560;2024-03-23T07:26:08;15.20;86.60
63317;DHT22;49822;41.468;13.560;2024-03-23T07:28:34;15.30;86.20
63317;DHT22;49822;41.468;13.560;2024-03-23T07:31:10;15.20;85.90
63317;DHT22;49822;41.468;13.560;2024-03-23T07:33:42;15.30;86.00
63317;DHT22;49822;41.468;13.560;2024-03-23T07:36:08;15.40;85.90
63317;DHT22;49822;41.468;13.560;2024-03-23T07:38:34;15.30;85.20
63317;DHT22;49822;41.468;13.560;2024-03-23T07:43:30;15.40;85.20
63317;DHT22;49822;41.468;13.560;2024-03-23T07:45:58;15.50;85.30
63317;DHT22;49822;41.468;13.560;2024-03-23T07:48:25;15.70;85.10
63317;DHT22;49822;41.468;13.560;2024-03-23T07:51:09;15.80;84.20
63317;DHT22;49822;41.468;13.560;2024-03-23T07:53:36;15.90;84.40
63317;DHT22;49822;41.468;13.560;2024-03-23T07:56:09;16.00;84.60
63317;DHT22;49822;41.468;13.560;2024-03-23T07:58:38;16.00;84.30
63317;DHT22;49822;41.468;13.560;2024-03-23T08:01:09;16.10;84.90
63317;DHT22;49822;41.468;13.560;2024-03-23T08:03:36;16.20;84.30
63317;DHT22;49822;41.468;13.560;2024-03-23T08:06:10;16.30;84.40
63317;DHT22;49822;41.468;13.560;2024-03-23T08:08:37;16.30;84.50
63317;DHT22;49822;41.468;13.560;2024-03-23T08:11:04;16.40;84.20
63317;DHT22;49822;41.468;13.560;2024-03-23T08:13:30;16.30;84.40
63317;DHT22;49822;41.468;13.560;2024-03-23T08:16:01;16.50;84.40
63317;DHT22;49822;41.468;13.560;2024-03-23T08:18:30;16.60;84.10
63317;DHT22;49822;41.468;13.560;2024-03-23T08:21:06;16.70;84.10
63317;DHT22;49822;41.468;13.560;2024-03-23T08:23:33;16.70;84.40
63317;DHT22;49822;41.468;13.560;2024-03-23T08:26:02;16.80;84.00
63317;DHT22;49822;41.468;13.560;2024-03-23T08:28:29;17.00;83.70
63317;DHT22;49822;41.468;13.560;2024-03-23T08:30:56;17.00;83.40
63317;DHT22;49822;41.468;13.560;2024-03-23T08:33:23;17.20;83.20
63317;DHT22;49822;41.468;13.560;2024-03-23T08:36:00;17.30;83.10
63317;DHT22;49822;41.468;13.560;2024-03-23T08:38:27;17.30;82.80
63317;DHT22;49822;41.468;13.560;2024-03-23T08:41:04;17.40;82.40
63317;DHT22;49822;41.468;13.560;2024-03-23T08:43:41;17.30;83.10
63317;DHT22;49822;41.468;13.560;2024-03-23T08:46:13;17.40;82.90
63317;DHT22;49822;41.468;13.560;2024-03-23T08:48:42;17.50;83.00
63317;DHT22;49822;41.468;13.560;2024-03-23T08:51:10;17.50;83.30
63317;DHT22;49822;41.468;13.560;2024-03-23T08:53:37;17.60;83.30
63317;DHT22;49822;41.468;13.560;2024-03-23T08:56:04;17.70;83.60
63317;DHT22;49822;41.468;13.560;2024-03-23T08:58:30;17.80;83.00
63317;DHT22;49822;41.468;13.560;2024-03-23T09:01:03;18.00;82.80
63317;DHT22;49822;41.468;13.560;2024-03-23T09:03:30;18.20;81.50
63317;DHT22;49822;41.468;13.560;2024-03-23T09:05:57;18.50;81.30
63317;DHT22;49822;41.468;13.560;2024-03-23T09:08:25;18.70;80.30
63317;DHT22;49822;41.468;13.560;2024-03-23T09:10:52;18.90;80.40
63317;DHT22;49822;41.468;13.560;2024-03-23T09:13:18;19.00;80.90
63317;DHT22;49822;41.468;13.560;2024-03-23T09:15:50;19.00;80.20
63317;DHT22;49822;41.468;13.560;2024-03-23T09:18:17;19.10;80.50
63317;DHT22;49822;41.468;13.560;2024-03-23T09:20:43;19.10;80.50
63317;DHT22;49822;41.468;13.560;2024-03-23T09:23:09;19.20;80.40
63317;DHT22;49822;41.468;13.560;2024-03-23T09:25:39;19.20;80.60
63317;DHT22;49822;41.468;13.560;2024-03-23T09:28:06;19.30;80.60
63317;DHT22;49822;41.468;13.560;2024-03-23T09:30:32;19.40;80.10
63317;DHT22;49822;41.468;13.560;2024-03-23T09:32:59;19.50;79.80
63317;DHT22;49822;41.468;13.560;2024-03-23T09:35:25;19.80;79.60
63317;DHT22;49822;41.468;13.560;2024-03-23T09:37:51;20.00;79.30
63317;DHT22;49822;41.468;13.560;2024-03-23T09:40:17;20.00;78.70
63317;DHT22;49822;41.468;13.560;2024-03-23T09:42:50;20.00;78.40
63317;DHT22;49822;41.468;13.560;2024-03-23T09:45:26;19.90;78.10
63317;DHT22;49822;41.468;13.560;2024-03-23T09:47:54;20.00;78.20
63317;DHT22;49822;41.468;13.560;2024-03-23T09:50:21;20.10;78.50
63317;DHT22;49822;41.468;13.560;2024-03-23T09:52:48;20.00;78.20
63317;DHT22;49822;41.468;13.560;2024-03-23T09:55:14;20.00;78.00
63317;DHT22;49822;41.468;13.560;2024-03-23T09:57:41;19.90;78.50
63317;DHT22;49822;41.468;13.560;2024-03-23T10:00:07;19.80;78.20
63317;DHT22;49822;41.468;13.560;2024-03-23T10:02:35;19.90;78.90
63317;DHT22;49822;41.468;13.560;2024-03-23T10:05:01;20.00;78.90
63317;DHT22;49822;41.468;13.560;2024-03-23T10:07:28;20.30;79.10
63317;DHT22;49822;41.468;13.560;2024-03-23T10:09:54;20.30;78.70
63317;DHT22;49822;41.468;13.560;2024-03-23T10:12:20;20.40;78.30
63317;DHT22;49822;41.468;13.560;2024-03-23T10:14:47;20.50;77.70
63317;DHT22;49822;41.468;13.560;2024-03-23T10:17:14;20.70;77.40
63317;DHT22;49822;41.468;13.560;2024-03-23T10:19:41;20.90;77.40
63317;DHT22;49822;41.468;13.560;2024-03-23T10:22:09;21.10;77.10
63317;DHT22;49822;41.468;13.560;2024-03-23T10:24:35;21.20;76.50
63317;DHT22;49822;41.468;13.560;2024-03-23T10:27:02;21.20;76.90
63317;DHT22;49822;41.468;13.560;2024-03-23T10:29:27;21.40;76.20
63317;DHT22;49822;41.468;13.560;2024-03-23T10:31:54;21.30;75.60
63317;DHT22;49822;41.468;13.560;2024-03-23T10:34:28;21.40;76.70
63317;DHT22;49822;41.468;13.560;2024-03-23T10:36:54;21.40;76.50
63317;DHT22;49822;41.468;13.560;2024-03-23T10:39:22;21.60;75.80
63317;DHT22;49822;41.468;13.560;2024-03-23T10:41:50;21.60;75.60
63317;DHT22;49822;41.468;13.560;2024-03-23T10:44:19;21.70;74.90
63317;DHT22;49822;41.468;13.560;2024-03-23T10:46:45;22.00;74.60
63317;DHT22;49822;41.468;13.560;2024-03-23T10:49:12;21.90;73.90
63317;DHT22;49822;41.468;13.560;2024-03-23T10:51:38;22.00;73.80
63317;DHT22;49822;41.468;13.560;2024-03-23T10:54:06;22.00;73.50
63317;DHT22;49822;41.468;13.560;2024-03-23T10:56:35;22.10;74.10
63317;DHT22;49822;41.468;13.560;2024-03-23T10:59:12;22.30;73.70
63317;DHT22;49822;41.468;13.560;2024-03-23T11:01:55;22.60;73.20
63317;DHT22;49822;41.468;13.560;2024-03-23T11:04:36;22.80;73.00
63317;DHT22;49822;41.468;13.560;2024-03-23T11:09:50;23.10;73.00
63317;DHT22;49822;41.468;13.560;2024-03-23T11:15:05;23.40;71.60
63317;DHT22;49822;41.468;13.560;2024-03-23T11:17:32;23.60;70.80
63317;DHT22;49822;41.468;13.560;2024-03-23T11:20:02;23.70;68.90
63317;DHT22;49822;41.468;13.560;2024-03-23T11:22:44;23.60;68.50
63317;DHT22;49822;41.468;13.560;2024-03-23T11:25:21;23.00;69.40
63317;DHT22;49822;41.468;13.560;2024-03-23T11:28:11;22.50;68.60
63317;DHT22;49822;41.468;13.560;2024-03-23T11:30:39;22.20;70.40
63317;DHT22;49822;41.468;13.560;2024-03-23T11:33:08;21.80;69.90
63317;DHT22;49822;41.468;13.560;2024-03-23T11:35:37;21.20;70.30
63317;DHT22;49822;41.468;13.560;2024-03-23T11:40:41;20.90;72.90
63317;DHT22;49822;41.468;13.560;2024-03-23T11:43:14;20.80;72.10
63317;DHT22;49822;41.468;13.560;2024-03-23T11:45:50;20.60;72.00
63317;DHT22;49822;41.468;13.560;2024-03-23T11:48:23;20.30;72.60
63317;DHT22;49822;41.468;13.560;2024-03-23T11:50:50;20.30;73.80
63317;DHT22;49822;41.468;13.560;2024-03-23T11:53:18;20.40;72.60
63317;DHT22;49822;41.468;13.560;2024-03-23T11:55:54;20.70;71.90
63317;DHT22;49822;41.468;13.560;2024-03-23T11:58:22;20.80;71.80
63317;DHT22;49822;41.468;13.560;2024-03-23T12:03:20;20.70;72.20
63317;DHT22;49822;41.468;13.560;2024-03-23T12:05:52;20.50;74.50
63317;DHT22;49822;41.468;13.560;2024-03-23T12:08:37;20.00;75.70
63317;DHT22;49822;41.468;13.560;2024-03-23T12:11:13;20.20;77.00
63317;DHT22;49822;41.468;13.560;2024-03-23T12:13:42;20.40;75.70
63317;DHT22;49822;41.468;13.560;2024-03-23T12:16:21;20.70;75.40
63317;DHT22;49822;41.468;13.560;2024-03-23T12:19:05;20.60;76.40
63317;DHT22;49822;41.468;13.560;2024-03-23T12:21:31;20.40;77.00
63317;DHT22;49822;41.468;13.560;2024-03-23T12:23:57;20.40;77.20
63317;DHT22;49822;41.468;13.560;2024-03-23T12:26:24;20.30;77.40
63317;DHT22;49822;41.468;13.560;2024-03-23T12:28:50;20.30;77.10
63317;DHT22;49822;41.468;13.560;2024-03-23T12:31:16;20.10;78.90
63317;DHT22;49822;41.468;13.560;2024-03-23T12:33:42;19.80;79.40
63317;DHT22;49822;41.468;13.560;2024-03-23T12:36:10;20.00;79.20
63317;DHT22;49822;41.468;13.560;2024-03-23T12:38:36;19.80;79.90
63317;DHT22;49822;41.468;13.560;2024-03-23T12:41:02;19.90;79.10
63317;DHT22;49822;41.468;13.560;2024-03-23T12:43:30;20.10;78.80
63317;DHT22;49822;41.468;13.560;2024-03-23T12:45:57;19.90;79.10
63317;DHT22;49822;41.468;13.560;2024-03-23T12:48:24;19.90;79.00
63317;DHT22;49822;41.468;13.560;2024-03-23T12:50:55;19.60;79.90
63317;DHT22;49822;41.468;13.560;2024-03-23T12:53:22;19.70;79.70
63317;DHT22;49822;41.468;13.560;2024-03-23T12:55:48;19.40;79.60
63317;DHT22;49822;41.468;13.560;2024-03-23T12:58:14;19.20;80.00
63317;DHT22;49822;41.468;13.560;2024-03-23T13:00:42;19.00;80.00
63317;DHT22;49822;41.468;13.560;2024-03-23T13:03:13;19.00;79.50
63317;DHT22;49822;41.468;13.560;2024-03-23T13:05:41;19.20;79.40
63317;DHT22;49822;41.468;13.560;2024-03-23T13:08:09;19.30;79.20
63317;DHT22;49822;41.468;13.560;2024-03-23T13:10:35;19.10;79.30
63317;DHT22;49822;41.468;13.560;2024-03-23T13:13:01;19.20;78.70
63317;DHT22;49822;41.468;13.560;2024-03-23T13:15:27;18.90;79.30
63317;DHT22;49822;41.468;13.560;2024-03-23T13:17:53;18.60;80.00
63317;DHT22;49822;41.468;13.560;2024-03-23T13:20:19;18.50;79.20
63317;DHT22;49822;41.468;13.560;2024-03-23T13:22:47;18.80;79.20
63317;DHT22;49822;41.468;13.560;2024-03-23T13:25:14;18.80;78.70
63317;DHT22;49822;41.468;13.560;2024-03-23T13:27:40;18.90;78.50
63317;DHT22;49822;41.468;13.560;2024-03-23T13:30:07;18.70;78.60
63317;DHT22;49822;41.468;13.560;2024-03-23T13:32:33;18.70;78.70
63317;DHT22;49822;41.468;13.560;2024-03-23T13:35:00;18.90;78.50
63317;DHT22;49822;41.468;13.560;2024-03-23T13:37:26;19.00;78.00
63317;DHT22;49822;41.468;13.560;2024-03-23T13:39:52;19.00;78.00
63317;DHT22;49822;41.468;13.560;2024-03-23T13:42:17;19.30;77.30
63317;DHT22;49822;41.468;13.560;2024-03-23T13:44:43;19.60;76.80
63317;DHT22;49822;41.468;13.560;2024-03-23T13:47:09;19.20;77.10
63317;DHT22;49822;41.468;13.560;2024-03-23T13:49:35;18.90;77.70
63317;DHT22;49822;41.468;13.560;2024-03-23T13:52:01;19.00;77.60
63317;DHT22;49822;41.468;13.560;2024-03-23T13:54:28;19.20;77.70
63317;DHT22;49822;41.468;13.560;2024-03-23T13:56:56;19.30;76.50
63317;DHT22;49822;41.468;13.560;2024-03-23T13:59:22;19.40;76.40
63317;DHT22;49822;41.468;13.560;2024-03-23T14:01:49;19.40;76.00
63317;DHT22;49822;41.468;13.560;2024-03-23T14:04:15;19.40;76.40
63317;DHT22;49822;41.468;13.560;2024-03-23T14:06:48;19.60;75.90
63317;DHT22;49822;41.468;13.560;2024-03-23T14:09:20;19.90;75.20
63317;DHT22;49822;41.468;13.560;2024-03-23T14:11:49;19.80;74.90
63317;DHT22;49822;41.468;13.560;2024-03-23T14:14:16;19.70;74.90
63317;DHT22;49822;41.468;13.560;2024-03-23T14:16:45;19.90;75.00
63317;DHT22;49822;41.468;13.560;2024-03-23T14:19:11;20.00;73.80
63317;DHT22;49822;41.468;13.560;2024-03-23T14:21:38;19.80;74.00
63317;DHT22;49822;41.468;13.560;2024-03-23T14:24:04;20.00;74.80
63317;DHT22;49822;41.468;13.560;2024-03-23T14:26:30;20.30;73.20
63317;DHT22;49822;41.468;13.560;2024-03-23T14:28:56;20.20;72.50
63317;DHT22;49822;41.468;13.560;2024-03-23T14:31:22;20.10;72.30
63317;DHT22;49822;41.468;13.560;2024-03-23T14:33:49;20.10;72.90
63317;DHT22;49822;41.468;13.560;2024-03-23T14:36:16;20.00;72.90
63317;DHT22;49822;41.468;13.560;2024-03-23T14:38:49;19.70;73.10
63317;DHT22;49822;41.468;13.560;2024-03-23T14:41:15;19.50;73.60
63317;DHT22;49822;41.468;13.560;2024-03-23T14:43:41;19.50;73.40
63317;DHT22;49822;41.468;13.560;2024-03-23T14:46:14;19.20;73.70
63317;DHT22;49822;41.468;13.560;2024-03-23T14:48:42;19.20;74.30
63317;DHT22;49822;41.468;13.560;2024-03-23T14:51:09;19.10;73.80
63317;DHT22;49822;41.468;13.560;2024-03-23T14:53:37;19.00;74.70
63317;DHT22;49822;41.468;13.560;2024-03-23T14:56:05;18.80;74.60
63317;DHT22;49822;41.468;13.560;2024-03-23T14:58:31;18.90;74.90
63317;DHT22;49822;41.468;13.560;2024-03-23T15:01:06;19.20;74.70
63317;DHT22;49822;41.468;13.560;2024-03-23T15:03:39;19.10;75.00
63317;DHT22;49822;41.468;13.560;2024-03-23T15:06:06;19.00;75.50
63317;DHT22;49822;41.468;13.560;2024-03-23T15:08:32;19.10;75.50
63317;DHT22;49822;41.468;13.560;2024-03-23T15:10:59;18.90;76.00
63317;DHT22;49822;41.468;13.560;2024-03-23T15:13:26;19.20;75.80
63317;DHT22;49822;41.468;13.560;2024-03-23T15:15:53;19.20;75.50
63317;DHT22;49822;41.468;13.560;2024-03-23T15:18:19;18.80;76.00
63317;DHT22;49822;41.468;13.560;2024-03-23T15:20:59;18.50;76.40
63317;DHT22;49822;41.468;13.560;2024-03-23T15:23:29;18.50;76.60
63317;DHT22;49822;41.468;13.560;2024-03-23T15:25:56;18.90;76.20
63317;DHT22;49822;41.468;13.560;2024-03-23T15:28:23;19.30;76.00
63317;DHT22;49822;41.468;13.560;2024-03-23T15:30:50;19.30;75.20
63317;DHT22;49822;41.468;13.560;2024-03-23T15:33:17;19.10;75.70
63317;DHT22;49822;41.468;13.560;2024-03-23T15:35:43;19.40;75.10
63317;DHT22;49822;41.468;13.560;2024-03-23T15:38:09;19.60;74.60
63317;DHT22;49822;41.468;13.560;2024-03-23T15:40:36;19.70;73.70
63317;DHT22;49822;41.468;13.560;2024-03-23T15:43:02;19.80;73.20
63317;DHT22;49822;41.468;13.560;2024-03-23T15:45:28;20.40;73.20
63317;DHT22;49822;41.468;13.560;2024-03-23T15:47:54;20.30;71.80
63317;DHT22;49822;41.468;13.560;2024-03-23T15:50:21;20.50;72.00
63317;DHT22;49822;41.468;13.560;2024-03-23T15:52:47;20.20;71.40
63317;DHT22;49822;41.468;13.560;2024-03-23T15:55:14;20.70;71.00
63317;DHT22;49822;41.468;13.560;2024-03-23T15:57:40;21.00;69.90
63317;DHT22;49822;41.468;13.560;2024-03-23T16:00:06;21.30;70.10
63317;DHT22;49822;41.468;13.560;2024-03-23T16:02:39;21.70;69.40
63317;DHT22;49822;41.468;13.560;2024-03-23T16:05:05;22.20;68.60
63317;DHT22;49822;41.468;13.560;2024-03-23T16:07:34;22.50;67.60
63317;DHT22;49822;41.468;13.560;2024-03-23T16:10:00;22.60;67.60
63317;DHT22;49822;41.468;13.560;2024-03-23T16:12:31;22.50;67.10
63317;DHT22;49822;41.468;13.560;2024-03-23T16:14:57;22.30;67.50
63317;DHT22;49822;41.468;13.560;2024-03-23T16:17:22;22.50;67.20
63317;DHT22;49822;41.468;13.560;2024-03-23T16:19:48;22.70;66.40
63317;DHT22;49822;41.468;13.560;2024-03-23T16:22:14;22.80;66.50
63317;DHT22;49822;41.468;13.560;2024-03-23T16:24:40;22.00;67.50
63317;DHT22;49822;41.468;13.560;2024-03-23T16:27:06;21.40;68.60
63317;DHT22;49822;41.468;13.560;2024-03-23T16:29:32;20.70;70.20
63317;DHT22;49822;41.468;13.560;2024-03-23T16:31:58;20.10;71.60
63317;DHT22;49822;41.468;13.560;2024-03-23T16:34:24;19.40;72.80
63317;DHT22;49822;41.468;13.560;2024-03-23T16:36:50;18.90;74.00